Latest Coastal Weather Observations for Coolangatta

IDQ60701

Issued at 10:41 pm EST Wednesday 5 August 2015 (issued every 10 minutes, with the page automatically refreshed every 10 minutes)

About coastal observations | Map of coastal stations | Coastal observations for QLD | Marine services | Other Formats
Station Details ID: 040717 Name: COOLANGATTA Lat: -28.17 Lon: 153.51 Height: 4.0 m
Data from the previous 72 hours. | See also: Recent months at Coolangatta
Date/Time
EST
Temp

°C
Wind Pressure Rain
since 9am
mm
Weather Cloud Vis
km
Sea
Height
m
Swell
Dir
 
Speed
knots
Gust
knots
hPa Trend Height
m
Period
s
Dir
05/10:30pm 11.6 SSE 5 6 1015.1 - 0.0 - - 10 - - - -
05/10:00pm 10.1 SSE 8 10 1015.0 - 0.0 - - 10 - - - -
05/09:30pm 10.7 S 7 8 1014.9 - 0.0 - - 10 - - - -
05/09:00pm 7.3 WSW 4 6 1014.7 - 0.0 - - 10 - - - -
05/08:30pm 9.1 SSW 3 4 1014.5 - 0.0 - - 10 - - - -
05/08:00pm 8.8 WSW 5 7 1014.3 - 0.0 - - 10 - - - -
05/07:30pm 9.7 SW 5 6 1014.1 - 0.0 - - 10 - - - -
05/07:00pm 10.3 WSW 5 8 1014.0 - 0.0 - - 10 - - - -
05/06:30pm 11.5 WSW 5 7 1013.5 - 0.0 - - 10 - - - -
05/06:00pm 11.7 WSW 5 6 1013.2 - 0.0 - - 10 - - - -
05/05:30pm 12.6 SW 3 5 1012.9 - 0.0 - - 10 - - - -
05/05:00pm 15.7 SE 5 6 1012.6 - 0.0 - - 10 - - - -
05/04:30pm 17.8 SSE 7 9 1012.2 - 0.0 - - 10 - - - -
05/04:00pm 19.2 SSE 4 7 1012.0 - 0.0 - - 10 - - - -
05/03:30pm 19.9 ENE 6 9 1011.8 - 0.0 - - 10 - - - -
05/03:00pm 19.2 N 10 12 1011.8 - 0.0 - - 10 - - - -
05/02:30pm 18.9 NNE 8 11 1011.9 - 0.0 - - 10 - - - -
05/02:00pm 17.6 NNE 9 11 1012.0 - 0.0 - - 10 - - - -
05/01:30pm 17.3 NNE 9 11 1012.4 - 0.0 - - 10 - - - -
05/01:00pm 17.1 NNE 9 11 1013.0 - 0.0 - - 10 - - - -
05/12:30pm 16.7 NNE 8 10 1013.6 - 0.0 - - 10 - - - -
05/12:00pm 16.6 NNE 7 9 1014.1 - 0.0 - - 10 - - - -
05/11:30am 16.4 N 6 8 1014.6 - 0.0 - - 10 - - - -
05/11:00am 16.0 NNE 7 9 1014.9 - 0.0 - - 10 - - - -
05/10:30am 15.5 WSW 4 6 1015.4 - 0.0 - - 10 - - - -
05/10:00am 15.0 W 3 5 1015.7 - 0.0 - - 10 - - - -
05/09:30am 13.5 WSW 3 5 1016.0 - 0.0 - - 10 - - - -
05/09:00am 12.4 WSW 2 4 1016.0 - 1.6 - - 10 - - - -
05/08:30am 10.6 S 3 4 1016.0 - 1.6 - - 10 - - - -
05/08:00am 8.1 SW 2 5 1015.9 - 1.6 - - 10 - - - -
05/07:30am 6.6 SW 3 4 1015.7 - 1.6 - - 10 - - - -
05/07:00am 5.4 WSW 4 6 1015.4 - 1.6 - - 10 - - - -
05/06:30am 4.7 WSW 5 6 1015.3 - 1.6 - - 10 - - - -
05/06:00am 4.3 WSW 4 4 1015.2 - 1.6 - - 10 - - - -
05/05:30am 4.7 SW 3 5 1014.7 - 1.6 - - 10 - - - -
05/05:06am 5.4 WSW 4 5 1014.4 - 1.6 - - 10 - - - -
05/05:00am 5.3 WSW 4 5 1014.4 - 1.6 - - 10 - - - -
05/04:30am 4.6 SW 3 4 1014.4 - 1.6 - - 4 - - - -
05/04:00am 4.8 CALM 0 0 1014.4 - 1.6 - - 0.7 - - - -
05/03:34am 5.6 CALM 0 0 1014.5 - 1.6 - - 4 - - - -
05/03:30am 6.3 CALM 0 0 1014.6 - 1.6 - - 10 - - - -
05/03:28am 6.3 CALM 0 0 1014.6 - 1.6 - - 10 - - - -
05/03:00am 6.0 CALM 0 0 1014.8 - 1.6 - - 4 - - - -
05/02:30am 6.8 SW 3 4 1015.1 - 1.6 - - 0.9 - - - -
05/02:17am 7.1 WSW 3 4 1015.3 - 1.6 - - 5 - - - -
05/02:15am 6.5 WSW 3 4 1015.3 - 1.6 - - 10 - - - -
05/02:00am 7.0 SW 4 4 1015.6 - 1.6 - - 1 - - - -
05/01:51am 7.7 WSW 1 4 1015.7 - 1.6 - - 6 - - - -
05/01:40am 7.8 WSW 2 3 1015.8 - 1.6 - - 10 - - - -
05/01:30am 8.0 WSW 3 4 1015.7 - 1.6 - - 6 - - - -
05/01:29am 8.1 WSW 3 4 1015.7 - 1.6 - - 6 - - - -
05/01:00am 8.9 SSE 3 4 1015.9 - 1.6 - - 10 - - - -
05/12:30am 10.8 SW 5 7 1016.1 - 1.6 - - 10 - - - -
05/12:00am 11.3 SSW 5 6 1016.1 - 1.6 Recent precip. - 10 - - - -
 
Date/Time
EST
Temp

°C
Wind Pressure Rain
since 9am
mm
Weather Cloud Vis
km
Sea
Height
m
Swell
Dir
 
Speed
knots
Gust
knots
hPa Trend Height
m
Period
s
Dir
04/11:47pm 11.5 SW 5 6 1016.3 - 1.6 - - 10 - - - -
04/11:30pm 11.8 SSW 2 4 1016.3 - 1.6 - - 5 - - - -
04/11:28pm 11.8 SSW 3 4 1016.3 - 1.6 - - 5 - - - -
04/11:00pm 12.5 S 3 4 1016.4 - 1.4 - - 10 - - - -
04/10:30pm 13.0 SW 6 7 1016.6 - 1.4 - - 10 - - - -
04/10:00pm 13.0 WSW 5 7 1016.7 - 1.4 - Partly cloudy 10 - - - -
04/09:30pm 13.6 WSW 5 8 1016.8 - 1.4 - Partly cloudy 10 - - - -
04/09:02pm 13.8 WSW 6 7 1016.9 - 1.4 - Partly cloudy 9 - - - -
04/09:00pm 13.9 WSW 6 7 1017.0 - 1.4 Showers Cloudy 9 - - - -
04/08:48pm 14.0 WSW 7 9 1017.0 - 1.0 - Partly cloudy 6 - - - -
04/08:30pm 14.2 SW 5 8 1017.0 - 0.2 - Partly cloudy 10 - - - -
04/08:00pm 14.0 S 5 7 1016.8 - 0.0 - Partly cloudy 10 - - - -
04/07:30pm 14.9 WSW 5 6 1017.0 - 0.0 - Partly cloudy 10 - - - -
04/07:00pm 14.7 SSW 4 6 1017.0 - 0.0 - Partly cloudy 10 - - - -
04/06:30pm 14.7 SSW 5 7 1016.9 - 0.0 - Partly cloudy 10 - - - -
04/06:00pm 15.3 SSW 5 7 1016.8 - 0.0 - Cloudy 10 - - - -
04/05:30pm 15.5 S 6 8 1016.6 - 0.0 - Partly cloudy 10 - - - -
04/05:00pm 16.7 SSE 9 12 1016.7 - 0.0 - - 10 - - - -
04/04:30pm 17.7 SSE 9 12 1016.8 - 0.0 - Partly cloudy 10 - - - -
04/04:00pm 18.6 S 9 13 1016.7 - 0.0 - Partly cloudy 10 - - - -
04/03:30pm 19.4 SSE 8 12 1016.8 - 0.0 - - 10 - - - -
04/03:00pm 19.4 SSE 10 13 1017.0 - 0.0 - Mostly clear 10 - - - -
04/02:30pm 19.6 S 10 13 1017.3 - 0.0 - Partly cloudy 10 - - - -
04/02:00pm 19.4 SSE 11 16 1017.4 - 0.0 - Partly cloudy 10 - - - -
04/01:30pm 19.3 S 8 13 1017.7 - 0.0 - Partly cloudy 10 - - - -
04/01:00pm 19.5 S 11 17 1017.8 - 0.0 - Partly cloudy 10 - - - -
04/12:30pm 19.5 S 12 17 1018.1 - 0.0 - Cloudy 10 - - - -
04/12:00pm 19.2 S 12 18 1018.5 - 0.0 - Mostly cloudy 10 - - - -
04/11:30am 19.0 S 12 20 1019.0 - 0.0 - Cloudy 10 - - - -
04/11:00am 18.2 S 12 18 1019.7 - 0.0 - Cloudy 10 - - - -
04/10:30am 19.2 SSW 11 15 1019.8 - 0.0 - Partly cloudy 10 - - - -
04/10:00am 18.5 SSW 11 17 1019.9 - 0.0 - Partly cloudy 10 - - - -
04/09:30am 18.9 SSW 11 15 1019.6 - 0.0 - Partly cloudy 10 - - - -
04/09:00am 18.3 S 12 17 1019.5 - 0.0 - Partly cloudy 10 - - - -
04/08:30am 17.5 SSW 11 18 1019.3 - 0.0 - Partly cloudy 10 - - - -
04/08:00am 17.1 SSW 12 20 1019.1 - 0.0 - Partly cloudy 10 - - - -
04/07:30am 16.4 SSW 10 17 1018.9 - 0.0 - Partly cloudy 10 - - - -
04/07:00am 16.2 SSW 10 16 1018.7 - 0.0 - Cloudy 10 - - - -
04/06:30am 16.3 SSW 10 17 1018.4 - 0.0 - Cloudy 10 - - - -
04/06:00am 16.4 SSW 12 18 1018.0 - 0.0 - Cloudy 10 - - - -
04/05:30am 16.6 SSW 9 14 1017.8 - 0.0 - - 10 - - - -
04/05:00am 16.6 S 9 13 1017.3 - 0.0 - Partly cloudy 10 - - - -
04/04:30am 17.6 S 10 16 1016.9 - 0.0 - - 10 - - - -
04/04:00am 17.8 SSW 11 15 1016.7 - 0.0 - - 10 - - - -
04/03:30am 18.0 SSW 11 16 1016.6 - 0.0 - - 10 - - - -
04/03:00am 17.9 SSW 10 14 1016.4 - 0.0 - Cloudy 10 - - - -
04/02:30am 18.0 SSW 10 14 1016.3 - 0.0 - - 10 - - - -
04/02:00am 17.9 S 10 13 1016.4 - 0.0 - - 10 - - - -
04/01:30am 18.7 SSW 11 17 1016.2 - 0.0 - - 10 - - - -
04/01:00am 18.6 SSW 10 15 1016.2 - 0.0 - - 10 - - - -
04/12:30am 19.1 SSW 9 15 1016.3 - 0.0 - - 10 - - - -
04/12:00am 19.5 SSW 8 13 1016.2 - 0.0 - Mostly cloudy 10 - - - -
 
Date/Time
EST
Temp

°C
Wind Pressure Rain
since 9am
mm
Weather Cloud Vis
km
Sea
Height
m
Swell
Dir
 
Speed
knots
Gust
knots
hPa Trend Height
m
Period
s
Dir
03/11:30pm 19.3 SSW 7 13 1016.2 - 0.0 - - 10 - - - -
03/11:00pm 18.2 S 6 14 1016.1 - 0.0 - - 10 - - - -
03/10:30pm 16.4 WSW 6 7 1015.7 - 0.0 - - 10 - - - -
03/10:00pm 16.5 SW 7 9 1015.6 - 0.0 - - 10 - - - -
03/09:30pm 16.4 WSW 6 8 1015.7 - 0.0 - - 10 - - - -
03/09:00pm 16.8 WNW 5 6 1015.9 - 0.0 - Partly cloudy 10 - - - -
03/08:30pm 18.8 N 5 7 1015.8 - 0.0 - - 10 - - - -
03/08:00pm 18.1 NNW 6 8 1015.8 - 0.0 - - 10 - - - -
03/07:30pm 18.2 SE 2 4 1015.8 - 0.0 - - 10 - - - -
03/07:00pm 19.3 NW 5 9 1015.3 - 0.0 - - 10 - - - -
03/06:30pm 20.4 NNW 12 16 1014.8 - 0.0 - - 10 - - - -
03/06:00pm 20.5 NNW 11 13 1014.4 - 0.0 - - 10 - - - -
03/05:30pm 20.8 NNW 13 17 1014.1 - 0.0 - - 10 - - - -
03/05:00pm 20.8 N 9 13 1014.0 - 0.0 - - 10 - - - -
03/04:30pm 21.4 N 12 16 1013.8 - 0.0 - - 10 - - - -
03/04:00pm 22.7 N 12 15 1013.6 - 0.0 - - 10 - - - -
03/03:30pm 25.6 NNW 10 14 1013.5 - 0.0 - - 10 - - - -
03/03:00pm 26.3 NW 11 16 1013.3 - 0.0 - - 10 - - - -
03/02:30pm 25.4 N 11 14 1013.4 - 0.0 - - 10 - - - -
03/02:00pm 24.1 NNE 13 16 1013.7 - 0.0 - - 10 - - - -
03/01:30pm 24.5 N 13 16 1014.0 - 0.0 - - 10 - - - -
03/01:00pm 25.5 NNW 13 17 1014.2 - 0.0 - - 10 - - - -
03/12:30pm 24.4 N 13 15 1014.7 - 0.0 - - 10 - - - -
03/12:00pm 25.4 NNW 7 11 1015.3 - 0.0 - - 10 - - - -
03/11:30am 24.0 N 12 17 1015.8 - 0.0 - - 10 - - - -
03/11:00am 24.2 NW 12 18 1016.4 - 0.0 - - 10 - - - -
03/10:30am 23.1 NNW 10 15 1017.1 - 0.0 - - 10 - - - -
03/10:00am 21.9 NNW 11 18 1017.4 - 0.0 - - 10 - - - -
03/09:30am 21.1 NNW 11 16 1017.7 - 0.0 - - 10 - - - -
03/09:00am 20.1 N 13 17 1017.6 - 0.0 - - 10 - - - -
03/08:30am 19.6 NNW 11 15 1017.8 - 0.0 - - 10 - - - -
03/08:00am 19.1 NNW 11 15 1017.5 - 0.0 - - 10 - - - -
03/07:30am 17.6 NW 9 12 1017.5 - 0.0 - - 10 - - - -
03/07:00am 15.9 N 8 10 1017.3 - 0.0 - - 10 - - - -
03/06:30am 15.5 N 7 10 1017.2 - 0.0 - - 10 - - - -
03/06:00am 14.8 N 9 11 1016.9 - 0.0 - - 10 - - - -
03/05:30am 15.5 NNW 9 13 1017.1 - 0.0 - - 10 - - - -
03/05:00am 15.3 N 9 11 1017.0 - 0.0 - - 10 - - - -
03/04:30am 15.1 NNW 8 10 1017.0 - 0.0 - - 10 - - - -
03/04:00am 15.6 NNW 9 11 1017.0 - 0.0 - - 10 - - - -
03/03:30am 16.1 NNW 9 12 1017.2 - 0.0 - - 10 - - - -
03/03:00am 16.2 NNW 7 9 1017.5 - 0.0 - - 10 - - - -
03/02:30am 16.8 NNW 8 12 1017.6 - 0.0 - - 10 - - - -
03/02:00am 15.1 NNW 5 8 1018.0 - 0.0 - - 10 - - - -
03/01:30am 14.3 ENE 2 6 1018.2 - 0.0 - - 10 - - - -
03/01:00am 16.6 NW 7 9 1018.5 - 0.0 - - 10 - - - -
03/12:30am 16.8 NW 8 11 1018.7 - 0.0 - - 10 - - - -
03/12:00am 17.6 NW 9 14 1018.9 - 0.0 - - 10 - - - -
 
Date/Time
EST
Temp

°C
Wind Pressure Rain
since 9am
mm
Weather Cloud Vis
km
Sea
Height
m
Swell
Dir
 
Speed
knots
Gust
knots
hPa Trend Height
m
Period
s
Dir
02/11:30pm 17.5 NW 9 14 1019.3 - 0.0 - - 10 - - - -
02/11:00pm 17.5 NNW 8 13 1019.2 - 0.0 - - 10 - - - -

Other Formats:

Comma delimited format used in spreadsheet applications
http://www.bom.gov.au/fwo/IDQ60701/IDQ60701.94592.axf

JavaScript Object Notation format (JSON) in row-major order
http://www.bom.gov.au/fwo/IDQ60701/IDQ60701.94592.json